North Englewood, Maryland
Current Conditions -  °F | °C
As of 11:25 AM on Wednesday 26 Nov 2014 (Local Time) from KCGS Reporting Station
Overcast Overcast  
Wind Chill: 34°   Ceiling: 600
Heat Index: 34°   Visibility: 1mi
Dew Point: 32°   Wind: 0mph
Humidity: 93%   Direction: NA
Pressure: 30.04"   Gusts: NA
Location:  38.9183°N, 76.8721°W
Report Text: KCGS 261625Z AUTO 00000KT 1SM OVC006 01/00 A3004 RMK AO1
Loading
Personal Weather Stations






























Interactive Weather Map New forecast layout! Learn more

10-Day Weather Forecast

Advertisements
Track Severe Weather on mobile